createdAt,value
2022-08-25T00:00:26.898Z,23.8
2022-08-25T00:01:27.015Z,23.8
2022-08-25T00:02:26.918Z,23.7
2022-08-25T00:03:27.002Z,23.7
2022-08-25T00:04:26.887Z,23.6
2022-08-25T00:05:27.737Z,23.6
2022-08-25T00:06:26.888Z,23.6
2022-08-25T00:07:26.987Z,23.6
2022-08-25T00:08:26.971Z,23.6
2022-08-25T00:09:26.906Z,23.6
2022-08-25T00:10:26.892Z,23.6
2022-08-25T00:11:26.891Z,23.6
2022-08-25T00:12:26.915Z,23.7
2022-08-25T00:13:26.894Z,23.7
2022-08-25T00:14:26.899Z,23.7
2022-08-25T00:15:26.993Z,23.7
2022-08-25T00:16:26.898Z,23.7
2022-08-25T00:17:26.896Z,23.7
2022-08-25T00:18:26.899Z,23.8
2022-08-25T00:19:26.912Z,23.7
2022-08-25T00:20:26.908Z,23.7
2022-08-25T00:21:26.940Z,23.6
2022-08-25T00:22:26.942Z,23.6
2022-08-25T00:23:26.903Z,23.5
2022-08-25T00:24:26.904Z,23.5
2022-08-25T00:25:26.888Z,23.5
2022-08-25T00:26:26.912Z,23.4
2022-08-25T00:27:26.923Z,23.4
2022-08-25T00:28:26.947Z,23.4
2022-08-25T00:29:26.934Z,23.4
2022-08-25T00:30:26.927Z,23.3
2022-08-25T00:31:37.510Z,23.3
2022-08-25T00:32:26.915Z,23.3
2022-08-25T00:33:28.934Z,23.4
2022-08-25T00:34:26.906Z,23.4
2022-08-25T00:35:26.937Z,23.4
2022-08-25T00:36:26.893Z,23.3
2022-08-25T00:37:26.917Z,23.3
2022-08-25T00:38:26.911Z,23.3
2022-08-25T00:39:26.903Z,23.3
2022-08-25T00:40:27.038Z,23.2
2022-08-25T00:41:26.900Z,23.3
2022-08-25T00:42:26.945Z,23.2
2022-08-25T00:43:26.895Z,23.1
2022-08-25T00:44:26.910Z,23.1
2022-08-25T00:45:26.903Z,23.1
2022-08-25T00:46:26.975Z,23.1
2022-08-25T00:47:27.166Z,23
2022-08-25T00:48:27.145Z,23
2022-08-25T00:49:27.304Z,23
2022-08-25T00:50:26.915Z,23
2022-08-25T00:51:26.980Z,23
2022-08-25T00:52:26.903Z,22.9
2022-08-25T00:53:26.906Z,23
2022-08-25T00:54:26.909Z,23
2022-08-25T00:55:26.915Z,22.9
2022-08-25T00:56:26.979Z,22.9
2022-08-25T00:57:34.050Z,22.9
2022-08-25T00:58:27.016Z,22.9
2022-08-25T00:59:26.912Z,22.8
2022-08-25T01:00:26.913Z,22.7
2022-08-25T01:01:27.000Z,22.6
2022-08-25T01:02:26.919Z,22.6
2022-08-25T01:03:33.010Z,22.6
2022-08-25T01:04:26.916Z,22.6
2022-08-25T01:05:26.910Z,22.5
2022-08-25T01:06:26.930Z,22.6
2022-08-25T01:07:26.898Z,22.6
2022-08-25T01:08:26.916Z,22.5
2022-08-25T01:09:26.913Z,22.4
2022-08-25T01:10:26.969Z,22.4
2022-08-25T01:11:26.914Z,22.4
2022-08-25T01:12:26.919Z,22.4
2022-08-25T01:13:26.962Z,22.3
2022-08-25T01:14:26.913Z,22.4
2022-08-25T01:15:26.971Z,22.4
2022-08-25T01:16:26.981Z,22.4
2022-08-25T01:17:26.960Z,22.4
2022-08-25T01:18:26.912Z,22.5
2022-08-25T01:19:26.910Z,22.4
2022-08-25T01:20:29.162Z,22.4
2022-08-25T01:21:26.913Z,22.4
2022-08-25T01:22:26.931Z,22.4
2022-08-25T01:23:26.970Z,22.4
2022-08-25T01:24:26.957Z,22.4
2022-08-25T01:25:26.924Z,22.4
2022-08-25T01:26:30.548Z,22.4
2022-08-25T01:27:26.907Z,22.4
2022-08-25T01:28:26.973Z,22.4
2022-08-25T01:29:26.905Z,22.3
2022-08-25T01:30:26.942Z,22.3
2022-08-25T01:31:26.964Z,22.3
2022-08-25T01:32:26.932Z,22.2
2022-08-25T01:33:26.919Z,22.2
2022-08-25T01:34:26.904Z,22.1
2022-08-25T01:35:26.905Z,22.1
2022-08-25T01:36:26.933Z,22.1
2022-08-25T01:37:26.981Z,22.1
2022-08-25T01:38:26.935Z,22.1
2022-08-25T01:39:26.981Z,22.1
2022-08-25T01:40:29.057Z,22.1
2022-08-25T01:41:26.931Z,22.1
2022-08-25T01:42:26.922Z,22
2022-08-25T01:43:26.928Z,22
2022-08-25T01:44:26.995Z,22
2022-08-25T01:45:26.919Z,21.9
2022-08-25T01:46:27.090Z,22
2022-08-25T01:47:26.917Z,21.9
2022-08-25T01:48:26.917Z,22
2022-08-25T01:49:26.927Z,21.9
2022-08-25T01:50:26.925Z,22
2022-08-25T01:51:27.007Z,22
2022-08-25T01:52:26.922Z,22
2022-08-25T01:53:26.921Z,22.1
2022-08-25T01:54:27.047Z,22.1
2022-08-25T01:55:27.095Z,22.1
2022-08-25T01:56:27.022Z,22.1
2022-08-25T01:57:26.922Z,22.1
2022-08-25T01:58:26.993Z,22
2022-08-25T01:59:26.938Z,22
2022-08-25T02:00:26.916Z,22.1
2022-08-25T02:01:27.078Z,22.1
2022-08-25T02:02:26.958Z,22.1
2022-08-25T02:03:26.924Z,22
2022-08-25T02:04:26.993Z,22.1
2022-08-25T02:05:26.991Z,22
2022-08-25T02:06:28.889Z,22
2022-08-25T02:07:26.919Z,22
2022-08-25T02:08:26.930Z,22
2022-08-25T02:09:26.917Z,22.1
2022-08-25T02:10:26.923Z,22.1
2022-08-25T02:11:26.970Z,22
2022-08-25T02:12:26.959Z,22
2022-08-25T02:13:31.242Z,21.9
2022-08-25T02:14:26.933Z,21.9
2022-08-25T02:15:26.928Z,22
2022-08-25T02:16:27.076Z,21.9
2022-08-25T02:17:26.926Z,22
2022-08-25T02:18:26.970Z,22
2022-08-25T02:19:26.948Z,21.9
2022-08-25T02:20:26.929Z,21.9
2022-08-25T02:21:26.932Z,22
2022-08-25T02:22:26.932Z,22
2022-08-25T02:23:26.949Z,22
2022-08-25T02:24:26.936Z,22
2022-08-25T02:25:26.956Z,22
2022-08-25T02:26:26.937Z,22
2022-08-25T02:27:26.936Z,22
2022-08-25T02:28:26.949Z,22
2022-08-25T02:29:26.934Z,22
2022-08-25T02:30:26.950Z,22
2022-08-25T02:31:26.929Z,22
2022-08-25T02:32:27.008Z,22
2022-08-25T02:33:26.928Z,22
2022-08-25T02:34:26.959Z,22
2022-08-25T02:35:26.933Z,22.1
2022-08-25T02:36:26.942Z,22.1
2022-08-25T02:37:26.949Z,22.2
2022-08-25T02:38:26.999Z,22.1
2022-08-25T02:39:27.017Z,22.1
2022-08-25T02:40:27.211Z,22.2
2022-08-25T02:41:30.912Z,22.2
2022-08-25T02:42:26.955Z,22.2
2022-08-25T02:43:26.932Z,22.1
2022-08-25T02:44:26.959Z,22.1
2022-08-25T02:45:26.950Z,22.1
2022-08-25T02:46:27.074Z,22.1
2022-08-25T02:47:29.063Z,22
2022-08-25T02:48:26.934Z,22
2022-08-25T02:49:26.940Z,22
2022-08-25T02:50:26.947Z,22
2022-08-25T02:51:26.934Z,22
2022-08-25T02:52:26.937Z,21.9
2022-08-25T02:53:26.993Z,21.8
2022-08-25T02:54:26.948Z,21.9
2022-08-25T02:55:26.931Z,21.9
2022-08-25T02:56:27.067Z,21.9
2022-08-25T02:57:26.951Z,21.9
2022-08-25T02:58:26.954Z,21.9
2022-08-25T02:59:27.011Z,21.8
2022-08-25T03:00:26.986Z,21.8
2022-08-25T03:01:28.781Z,21.9
2022-08-25T03:02:26.943Z,21.9
2022-08-25T03:03:26.996Z,21.9
2022-08-25T03:04:26.991Z,21.9
2022-08-25T03:05:26.933Z,21.9
2022-08-25T03:06:26.995Z,21.9
2022-08-25T03:07:26.980Z,22
2022-08-25T03:08:26.944Z,21.9
2022-08-25T03:09:26.956Z,21.8
2022-08-25T03:10:26.949Z,21.7
2022-08-25T03:11:26.944Z,21.7
2022-08-25T03:12:26.965Z,21.7
2022-08-25T03:13:26.975Z,21.7
2022-08-25T03:14:26.957Z,21.6
2022-08-25T03:15:26.942Z,21.6
2022-08-25T03:16:27.936Z,21.6
2022-08-25T03:17:26.958Z,21.6
2022-08-25T03:18:27.004Z,21.5
2022-08-25T03:19:26.960Z,21.5
2022-08-25T03:20:26.985Z,21.5
2022-08-25T03:21:26.968Z,21.5
2022-08-25T03:22:26.944Z,21.5
2022-08-25T03:23:26.946Z,21.5
2022-08-25T03:24:26.953Z,21.5
2022-08-25T03:25:26.953Z,21.6
2022-08-25T03:26:26.953Z,21.6
2022-08-25T03:27:27.013Z,21.6
2022-08-25T03:28:29.962Z,21.6
2022-08-25T03:29:26.980Z,21.7
2022-08-25T03:30:26.973Z,21.7
2022-08-25T03:31:27.078Z,21.6
2022-08-25T03:32:26.998Z,21.5
2022-08-25T03:33:26.971Z,21.4
2022-08-25T03:34:27.021Z,21.5
2022-08-25T03:35:26.948Z,21.5
2022-08-25T03:36:27.060Z,21.6
2022-08-25T03:37:26.949Z,21.7
2022-08-25T03:38:26.969Z,21.7
2022-08-25T03:39:26.974Z,21.7
2022-08-25T03:40:27.120Z,21.7
2022-08-25T03:41:28.157Z,21.7
2022-08-25T03:42:26.978Z,21.6
2022-08-25T03:43:26.975Z,21.6
2022-08-25T03:44:26.976Z,21.6
2022-08-25T03:45:27.033Z,21.6
2022-08-25T03:46:26.988Z,21.5
2022-08-25T03:47:27.054Z,21.5
2022-08-25T03:48:27.008Z,21.5
2022-08-25T03:49:26.950Z,21.5
2022-08-25T03:50:26.947Z,21.5
2022-08-25T03:51:26.994Z,21.5
2022-08-25T03:52:26.974Z,21.4
2022-08-25T03:53:27.032Z,21.4
2022-08-25T03:54:29.080Z,21.4
2022-08-25T03:55:26.998Z,21.4
2022-08-25T03:56:27.005Z,21.4
2022-08-25T03:57:26.963Z,21.4
2022-08-25T03:58:26.969Z,21.4
2022-08-25T03:59:26.968Z,21.4
2022-08-25T04:00:26.985Z,21.4
2022-08-25T04:01:27.144Z,21.4
2022-08-25T04:02:27.092Z,21.3
2022-08-25T04:03:26.986Z,21.3
2022-08-25T04:04:26.964Z,21.3
2022-08-25T04:05:26.956Z,21.3
2022-08-25T04:06:26.986Z,21.3
2022-08-25T04:07:26.977Z,21.3
2022-08-25T04:08:27.049Z,21.2
2022-08-25T04:09:26.988Z,21.2
2022-08-25T04:10:27.030Z,21.3
2022-08-25T04:11:26.951Z,21.2
2022-08-25T04:12:26.987Z,21.2
2022-08-25T04:13:27.010Z,21.2
2022-08-25T04:14:27.006Z,21.2
2022-08-25T04:15:28.073Z,21.2
2022-08-25T04:16:26.997Z,21.2
2022-08-25T04:17:26.961Z,21.2
2022-08-25T04:18:26.959Z,21.1
2022-08-25T04:19:26.962Z,21.1
2022-08-25T04:20:26.965Z,21.1
2022-08-25T04:21:26.974Z,21.1
2022-08-25T04:22:27.064Z,21.1
2022-08-25T04:23:26.956Z,21.2
2022-08-25T04:24:26.971Z,21.3
2022-08-25T04:25:27.030Z,21.2
2022-08-25T04:26:26.955Z,21.3
2022-08-25T04:27:26.967Z,21.3
2022-08-25T04:28:27.033Z,21.4
2022-08-25T04:29:27.035Z,21.3
2022-08-25T04:30:27.051Z,21.3
2022-08-25T04:31:27.069Z,21.2
2022-08-25T04:32:27.073Z,21.3
2022-08-25T04:33:27.097Z,21.3
2022-08-25T04:34:29.432Z,21.3
2022-08-25T04:35:27.087Z,21.3
2022-08-25T04:36:27.187Z,21.3
2022-08-25T04:37:27.205Z,21.3
2022-08-25T04:38:27.318Z,21.1
2022-08-25T04:39:27.328Z,21.1
2022-08-25T04:40:29.199Z,21.2
2022-08-25T04:41:26.989Z,21.1
2022-08-25T04:42:27.017Z,21.1
2022-08-25T04:43:26.963Z,21.1
2022-08-25T04:44:26.958Z,21
2022-08-25T04:45:27.094Z,21
2022-08-25T04:46:26.973Z,21
2022-08-25T04:47:28.129Z,21
2022-08-25T04:48:26.971Z,21.2
2022-08-25T04:49:27.066Z,21.1
2022-08-25T04:50:26.991Z,21.1
2022-08-25T04:51:27.024Z,21
2022-08-25T04:52:26.973Z,21.1
2022-08-25T04:53:26.966Z,21
2022-08-25T04:54:26.965Z,21
2022-08-25T04:55:26.992Z,21
2022-08-25T04:56:27.044Z,21.1
2022-08-25T04:57:26.984Z,21.1
2022-08-25T04:58:26.974Z,21.2
2022-08-25T04:59:29.455Z,21.1
2022-08-25T05:00:26.973Z,21.3
2022-08-25T05:01:29.245Z,21.3
2022-08-25T05:02:26.971Z,21.3
2022-08-25T05:03:27.029Z,21.3
2022-08-25T05:04:28.163Z,21.4
2022-08-25T05:05:27.102Z,21.3
2022-08-25T05:06:26.988Z,21.4
2022-08-25T05:07:26.990Z,21.4
2022-08-25T05:08:26.963Z,21.4
2022-08-25T05:09:26.983Z,21.4
2022-08-25T05:10:27.058Z,21.5
2022-08-25T05:11:26.966Z,21.5
2022-08-25T05:12:27.002Z,21.5
2022-08-25T05:13:26.969Z,21.4
2022-08-25T05:14:26.981Z,21.5
2022-08-25T05:15:26.976Z,21.6
2022-08-25T05:16:27.054Z,21.7
2022-08-25T05:17:27.035Z,21.7
2022-08-25T05:18:26.992Z,21.7
2022-08-25T05:19:26.982Z,21.7
2022-08-25T05:20:27.033Z,21.7
2022-08-25T05:21:26.989Z,21.6
2022-08-25T05:22:26.976Z,21.5
2022-08-25T05:23:27.025Z,21.5
2022-08-25T05:24:27.053Z,21.6
2022-08-25T05:25:26.975Z,21.7
2022-08-25T05:26:26.975Z,21.7
2022-08-25T05:27:26.981Z,21.7
2022-08-25T05:28:26.972Z,21.7
2022-08-25T05:29:26.978Z,21.8
2022-08-25T05:30:27.021Z,21.8
2022-08-25T05:31:27.025Z,21.8
2022-08-25T05:32:26.996Z,21.8
2022-08-25T05:33:26.992Z,21.8
2022-08-25T05:34:26.981Z,21.9
2022-08-25T05:35:27.030Z,21.9
2022-08-25T05:36:26.986Z,22
2022-08-25T05:37:27.024Z,22
2022-08-25T05:38:27.094Z,21.9
2022-08-25T05:39:27.100Z,21.9
2022-08-25T05:40:27.089Z,22
2022-08-25T05:41:26.973Z,22
2022-08-25T05:42:26.989Z,22
2022-08-25T05:43:27.016Z,22
2022-08-25T05:44:27.063Z,22
2022-08-25T05:45:27.049Z,22.1
2022-08-25T05:46:27.048Z,22.1
2022-08-25T05:47:27.004Z,22.2
2022-08-25T05:48:27.080Z,22.3
2022-08-25T05:49:26.998Z,22.3
2022-08-25T05:50:27.062Z,22.3
2022-08-25T05:51:27.048Z,22.2
2022-08-25T05:52:27.002Z,22.3
2022-08-25T05:53:26.997Z,22.3
2022-08-25T05:54:27.002Z,22.3
2022-08-25T05:55:27.009Z,22.3
2022-08-25T05:56:26.990Z,22.4
2022-08-25T05:57:27.006Z,22.4
2022-08-25T05:58:27.129Z,22.4
2022-08-25T05:59:26.996Z,22.5
2022-08-25T06:00:27.003Z,22.6
2022-08-25T06:01:27.040Z,22.7
2022-08-25T06:02:27.000Z,22.7
2022-08-25T06:03:27.020Z,22.6
2022-08-25T06:04:27.061Z,22.6
2022-08-25T06:05:27.043Z,22.6
2022-08-25T06:06:27.064Z,22.6
2022-08-25T06:07:27.018Z,22.7
2022-08-25T06:08:29.057Z,22.7
2022-08-25T06:09:27.002Z,22.7
2022-08-25T06:10:27.088Z,22.6
2022-08-25T06:11:27.035Z,22.6
2022-08-25T06:12:27.110Z,22.6
2022-08-25T06:13:28.900Z,22.8
2022-08-25T06:14:26.989Z,22.9
2022-08-25T06:15:27.000Z,22.9
2022-08-25T06:16:27.005Z,23
2022-08-25T06:17:26.999Z,23
2022-08-25T06:18:27.049Z,23
2022-08-25T06:19:27.015Z,23.1
2022-08-25T06:20:27.005Z,23.2
2022-08-25T06:21:26.994Z,23.2
2022-08-25T06:22:27.065Z,23.3
2022-08-25T06:23:27.028Z,23.3
2022-08-25T06:24:27.014Z,23.3
2022-08-25T06:25:27.089Z,23.3
2022-08-25T06:26:27.000Z,23.3
2022-08-25T06:27:27.045Z,23.4
2022-08-25T06:28:27.009Z,23.4
2022-08-25T06:29:27.003Z,23.5
2022-08-25T06:30:29.010Z,23.5
2022-08-25T06:31:27.091Z,23.5
2022-08-25T06:32:27.070Z,23.5
2022-08-25T06:33:27.011Z,23.5
2022-08-25T06:34:27.054Z,23.5
2022-08-25T06:35:26.999Z,23.5
2022-08-25T06:36:27.001Z,23.4
2022-08-25T06:37:27.012Z,23.7
2022-08-25T06:38:27.025Z,23.6
2022-08-25T06:39:27.173Z,23.6
2022-08-25T06:40:27.186Z,23.6
2022-08-25T06:41:29.019Z,23.7
2022-08-25T06:42:26.989Z,23.9
2022-08-25T06:43:27.010Z,24
2022-08-25T06:44:27.021Z,24.1
2022-08-25T06:45:26.995Z,24.1
2022-08-25T06:46:35.814Z,24.2
2022-08-25T06:47:27.024Z,24.2
2022-08-25T06:48:27.008Z,24.2
2022-08-25T06:49:27.016Z,24.2
2022-08-25T06:50:27.019Z,24.1
2022-08-25T06:51:27.016Z,24.2
2022-08-25T06:52:29.263Z,24.3
2022-08-25T06:53:27.075Z,24.3
2022-08-25T06:54:27.010Z,24.4
2022-08-25T06:55:27.012Z,24.3
2022-08-25T06:56:27.081Z,24.4
2022-08-25T06:57:27.009Z,24.5
2022-08-25T06:58:27.018Z,24.6
2022-08-25T06:59:32.298Z,24.7
2022-08-25T07:00:30.375Z,24.7
2022-08-25T07:01:27.400Z,24.6
2022-08-25T07:02:27.110Z,24.5
2022-08-25T07:03:27.000Z,24.6
2022-08-25T07:04:27.000Z,24.6
2022-08-25T07:05:34.038Z,24.7
2022-08-25T07:06:27.046Z,24.7
2022-08-25T07:07:27.157Z,24.7
2022-08-25T07:08:27.024Z,24.7
2022-08-25T07:09:27.009Z,24.7
2022-08-25T07:10:27.002Z,24.7
2022-08-25T07:11:27.057Z,24.8
2022-08-25T07:12:27.015Z,24.9
2022-08-25T07:13:27.034Z,24.8
2022-08-25T07:14:27.024Z,24.8
2022-08-25T07:15:29.059Z,25
2022-08-25T07:16:29.645Z,25.1
2022-08-25T07:17:27.009Z,25
2022-08-25T07:18:27.063Z,25.1
2022-08-25T07:19:27.032Z,25.1
2022-08-25T07:20:27.032Z,25.2
2022-08-25T07:21:31.258Z,25.3
2022-08-25T07:22:27.070Z,25.4
2022-08-25T07:23:27.000Z,25.4
2022-08-25T07:24:27.012Z,25.3
2022-08-25T07:25:27.008Z,25.1
2022-08-25T07:26:37.415Z,25.1
2022-08-25T07:27:27.078Z,25.3
2022-08-25T07:28:27.003Z,25.4
2022-08-25T07:29:32.937Z,25.5
2022-08-25T07:30:27.018Z,25.6
2022-08-25T07:31:29.674Z,25.7
2022-08-25T07:32:27.003Z,25.7
2022-08-25T07:33:27.098Z,25.7
2022-08-25T07:34:27.084Z,25.6
2022-08-25T07:35:27.037Z,25.7
2022-08-25T07:36:27.029Z,25.6
2022-08-25T07:37:47.575Z,25.8
2022-08-25T07:38:27.006Z,25.8
2022-08-25T07:39:27.008Z,25.8
2022-08-25T07:40:27.087Z,25.8
2022-08-25T07:41:27.078Z,25.8
2022-08-25T07:42:27.026Z,25.8
2022-08-25T07:43:27.013Z,25.9
2022-08-25T07:44:28.192Z,26
2022-08-25T07:45:27.013Z,26
2022-08-25T07:46:27.039Z,26.2
2022-08-25T07:47:27.009Z,26.2
2022-08-25T07:48:27.095Z,26.3
2022-08-25T07:49:27.028Z,26.4
2022-08-25T07:50:27.025Z,26.3
2022-08-25T07:52:27.030Z,26.1
2022-08-25T07:53:27.023Z,26.1
2022-08-25T07:54:34.176Z,26.1
2022-08-25T07:55:27.254Z,26.3
2022-08-25T07:56:27.017Z,26.4
2022-08-25T07:57:27.033Z,26.4
2022-08-25T07:58:27.014Z,26.5
2022-08-25T07:59:27.014Z,26.5
2022-08-25T08:00:27.022Z,26.6
2022-08-25T08:01:27.133Z,26.6
2022-08-25T08:02:27.079Z,26.6
2022-08-25T08:03:44.739Z,26.7
2022-08-25T08:04:27.014Z,26.8
2022-08-25T08:05:27.128Z,26.9
2022-08-25T08:06:27.017Z,27
2022-08-25T08:07:43.614Z,27.1
2022-08-25T08:08:27.056Z,27.1
2022-08-25T08:09:27.019Z,27.1
2022-08-25T08:10:47.943Z,27.2
2022-08-25T08:11:27.014Z,27.1
2022-08-25T08:12:27.054Z,27.3
2022-08-25T08:13:27.086Z,27.4
2022-08-25T08:14:27.039Z,27.5
2022-08-25T08:15:29.985Z,27.6
2022-08-25T08:16:27.055Z,27.5
2022-08-25T08:17:27.061Z,27.6
2022-08-25T08:18:27.035Z,27.6
2022-08-25T08:19:27.048Z,27.6
2022-08-25T08:20:27.061Z,27.8
2022-08-25T08:21:27.044Z,27.8
2022-08-25T08:22:29.150Z,27.9
2022-08-25T08:23:27.031Z,27.9
2022-08-25T08:24:44.228Z,27.7
2022-08-25T08:25:27.479Z,28
2022-08-25T08:26:36.480Z,28
2022-08-25T08:27:27.027Z,27.9
2022-08-25T08:28:27.038Z,27.9
2022-08-25T08:29:27.081Z,28.1
2022-08-25T08:30:27.031Z,28.2
2022-08-25T08:31:27.089Z,28.1
2022-08-25T08:32:32.404Z,28
2022-08-25T08:33:27.615Z,28.2
2022-08-25T08:34:27.034Z,28.3
2022-08-25T08:35:27.041Z,28.4
2022-08-25T08:36:27.084Z,28.4
2022-08-25T08:37:27.027Z,28.4
2022-08-25T08:38:27.365Z,28.5
2022-08-25T08:39:27.026Z,28.5
2022-08-25T08:40:27.129Z,28.5
2022-08-25T08:41:27.040Z,28.6
2022-08-25T08:42:27.078Z,28.6
2022-08-25T08:43:31.511Z,28.7
2022-08-25T08:44:27.045Z,28.7
2022-08-25T08:45:27.044Z,28.8
2022-08-25T08:46:27.067Z,28.8
2022-08-25T08:47:27.037Z,28.9
2022-08-25T08:48:27.039Z,29.1
2022-08-25T08:49:27.087Z,29.1
2022-08-25T08:50:32.728Z,29
2022-08-25T08:51:32.971Z,29.1
2022-08-25T08:52:27.041Z,29.3
2022-08-25T08:53:27.033Z,29.2
2022-08-25T08:54:27.031Z,29.3
2022-08-25T08:55:27.032Z,29.3
2022-08-25T08:56:29.748Z,29.2
2022-08-25T08:57:27.056Z,29.3
2022-08-25T08:58:27.035Z,29.3
2022-08-25T08:59:30.040Z,29.2
2022-08-25T09:00:27.021Z,29.2
2022-08-25T09:01:27.144Z,29.2
2022-08-25T09:02:38.553Z,29.3
2022-08-25T09:03:27.228Z,29.4
2022-08-25T09:04:27.055Z,29.3
2022-08-25T09:05:27.054Z,29.4
2022-08-25T09:06:27.047Z,29.4
2022-08-25T09:07:27.041Z,29.4
2022-08-25T09:08:27.046Z,29.5
2022-08-25T09:09:27.043Z,29.3
2022-08-25T09:10:27.107Z,29.4
2022-08-25T09:11:27.044Z,29.4
2022-08-25T09:12:27.701Z,29.6
2022-08-25T09:13:27.038Z,29.7
2022-08-25T09:14:30.261Z,29.6
2022-08-25T09:15:27.048Z,29.4
2022-08-25T09:16:33.888Z,29.5
2022-08-25T09:17:27.102Z,29.5
2022-08-25T09:18:27.037Z,29.7
2022-08-25T09:19:27.138Z,29.9
2022-08-25T09:20:27.064Z,29.8
2022-08-25T09:21:27.054Z,29.7
2022-08-25T09:22:35.024Z,29.8
2022-08-25T09:23:27.057Z,29.9
2022-08-25T09:24:27.112Z,30.1
2022-08-25T09:25:48.639Z,30.3
2022-08-25T09:26:27.056Z,30.1
2022-08-25T09:27:27.047Z,30
2022-08-25T09:28:27.080Z,30
2022-08-25T09:29:29.174Z,29.9
2022-08-25T09:30:27.061Z,30.1
2022-08-25T09:31:29.660Z,30.2
2022-08-25T09:32:31.334Z,30.3
2022-08-25T09:33:27.055Z,30.3
2022-08-25T09:34:27.052Z,30.4
2022-08-25T09:35:27.050Z,30.4
2022-08-25T09:36:27.051Z,30.3
2022-08-25T09:37:27.079Z,30.3
2022-08-25T09:38:27.121Z,30.4
2022-08-25T09:39:27.050Z,30.4
2022-08-25T09:40:27.118Z,30.3
2022-08-25T09:41:27.051Z,30.4
2022-08-25T09:42:27.079Z,30.4
2022-08-25T09:43:27.056Z,30.4
2022-08-25T09:44:27.099Z,30.6
2022-08-25T09:45:27.101Z,30.5
2022-08-25T09:46:27.321Z,30.6
2022-08-25T09:47:27.084Z,30.7
2022-08-25T09:48:27.047Z,30.8
2022-08-25T09:49:27.054Z,30.8
2022-08-25T09:50:27.055Z,30.9
2022-08-25T09:51:27.098Z,30.8
2022-08-25T09:52:27.086Z,30.8
2022-08-25T09:53:27.052Z,30.8
2022-08-25T09:54:36.298Z,30.9
2022-08-25T09:55:27.065Z,30.7
2022-08-25T09:56:27.092Z,30.8
2022-08-25T09:57:27.079Z,30.8
2022-08-25T09:58:27.097Z,30.9
2022-08-25T09:59:34.881Z,31.1
2022-08-25T10:00:27.077Z,31.2
2022-08-25T10:01:27.109Z,31.2
2022-08-25T10:02:27.166Z,31.4
2022-08-25T10:03:27.150Z,31.5
2022-08-25T10:04:27.077Z,31.5
2022-08-25T10:05:27.174Z,31.3
2022-08-25T10:06:27.083Z,31.5
2022-08-25T10:07:27.075Z,31.5
2022-08-25T10:08:27.073Z,31.5
2022-08-25T10:09:27.085Z,31.6
2022-08-25T10:10:27.096Z,31.7
2022-08-25T10:11:27.064Z,31.4
2022-08-25T10:12:27.976Z,31.4
2022-08-25T10:13:27.061Z,31.5
2022-08-25T10:14:27.122Z,31.4
2022-08-25T10:15:29.173Z,31.6
2022-08-25T10:16:32.158Z,31.8
2022-08-25T10:17:27.675Z,31.9
2022-08-25T10:18:27.074Z,31.5
2022-08-25T10:19:27.144Z,30.9
2022-08-25T10:20:27.075Z,30.9
2022-08-25T10:21:27.091Z,30.9
2022-08-25T10:22:27.077Z,30.9
2022-08-25T10:23:27.062Z,31
2022-08-25T10:24:27.071Z,31.2
2022-08-25T10:25:27.095Z,31.4
2022-08-25T10:26:27.148Z,31.2
2022-08-25T10:27:28.737Z,31.5
2022-08-25T10:28:27.090Z,31.7
2022-08-25T10:29:27.067Z,31.6
2022-08-25T10:30:27.090Z,31.2
2022-08-25T10:31:27.120Z,31.4
2022-08-25T10:32:27.135Z,31.4
2022-08-25T10:33:27.110Z,31.5
2022-08-25T10:34:27.079Z,31.7
2022-08-25T10:35:27.079Z,31.9
2022-08-25T10:36:29.206Z,31.9
2022-08-25T10:37:27.072Z,32
2022-08-25T10:38:27.217Z,31.8
2022-08-25T10:39:36.236Z,31.4
2022-08-25T10:40:27.198Z,31.7
2022-08-25T10:41:27.072Z,31.7
2022-08-25T10:42:27.082Z,31.8
2022-08-25T10:43:27.073Z,31.4
2022-08-25T10:44:27.092Z,31.4
2022-08-25T10:45:27.094Z,31.6
2022-08-25T10:46:27.159Z,31.6
2022-08-25T10:47:27.205Z,31.7
2022-08-25T10:48:27.074Z,31.8
2022-08-25T10:49:27.083Z,31.5
2022-08-25T10:50:27.084Z,31.4
2022-08-25T10:51:27.139Z,31.2
2022-08-25T10:52:27.088Z,31.3
2022-08-25T10:53:27.107Z,31.5
2022-08-25T10:54:27.094Z,31.5
2022-08-25T10:55:27.089Z,31.1
2022-08-25T10:56:27.079Z,31.3
2022-08-25T10:57:27.114Z,31.7
2022-08-25T10:58:30.623Z,32
2022-08-25T10:59:27.086Z,32.2
2022-08-25T11:00:31.322Z,32.4
2022-08-25T11:01:28.063Z,32.5
2022-08-25T11:02:27.148Z,32.7
2022-08-25T11:03:27.086Z,32.8
2022-08-25T11:04:27.320Z,33.1
2022-08-25T11:05:27.175Z,33
2022-08-25T11:06:27.085Z,32.5
2022-08-25T11:07:27.150Z,32.2
2022-08-25T11:08:27.075Z,32.2
2022-08-25T11:09:27.081Z,32
2022-08-25T11:10:27.084Z,32.1
2022-08-25T11:11:27.084Z,32.2
2022-08-25T11:12:27.086Z,32.2
2022-08-25T11:13:27.075Z,32.4
2022-08-25T11:14:29.417Z,32.2
2022-08-25T11:15:27.079Z,32.5
2022-08-25T11:16:27.114Z,32.7
2022-08-25T11:17:27.206Z,33
2022-08-25T11:18:27.143Z,33.3
2022-08-25T11:19:27.127Z,33.3
2022-08-25T11:20:27.496Z,33.3
2022-08-25T11:21:27.144Z,33.1
2022-08-25T11:22:27.094Z,33.2
2022-08-25T11:23:27.091Z,33.4
2022-08-25T11:24:27.176Z,33.4
2022-08-25T11:25:27.094Z,33.5
2022-08-25T11:26:30.235Z,33.7
2022-08-25T11:27:27.151Z,33.6
2022-08-25T11:28:27.135Z,33.6
2022-08-25T11:29:27.090Z,33.5
2022-08-25T11:30:27.145Z,33.2
2022-08-25T11:31:27.104Z,33.3
2022-08-25T11:32:27.094Z,33.2
2022-08-25T11:33:27.085Z,33.1
2022-08-25T11:34:27.140Z,33.1
2022-08-25T11:35:27.088Z,32.6
2022-08-25T11:36:27.942Z,32.5
2022-08-25T11:37:27.120Z,32.6
2022-08-25T11:38:27.094Z,32.8
2022-08-25T11:39:31.224Z,33
2022-08-25T11:40:27.136Z,33.3
2022-08-25T11:41:27.135Z,33.5
2022-08-25T11:42:27.099Z,33.7
2022-08-25T11:43:29.221Z,34
2022-08-25T11:44:27.112Z,33.9
2022-08-25T11:45:27.111Z,33.8
2022-08-25T11:46:27.812Z,33.7
2022-08-25T11:47:27.105Z,33.6
2022-08-25T11:48:27.139Z,33.8
2022-08-25T11:49:27.106Z,34.1
2022-08-25T11:50:30.044Z,34
2022-08-25T11:51:27.091Z,33.7
2022-08-25T11:52:30.597Z,33.4
2022-08-25T11:53:28.254Z,33.6
2022-08-25T11:54:27.097Z,33.8
2022-08-25T11:55:27.180Z,34.2
2022-08-25T11:56:27.114Z,34.4
2022-08-25T11:57:27.128Z,35
2022-08-25T11:58:27.096Z,35.5
2022-08-25T11:59:27.109Z,35.5
2022-08-25T12:00:27.100Z,35.7
2022-08-25T12:01:27.102Z,35.9
2022-08-25T12:02:27.178Z,35.3
2022-08-25T12:03:27.112Z,35.8
2022-08-25T12:04:27.236Z,36.4
2022-08-25T12:05:27.169Z,36.5
2022-08-25T12:06:27.125Z,36.7
2022-08-25T12:07:27.104Z,37.2
2022-08-25T12:08:27.104Z,37.6
2022-08-25T12:09:27.164Z,37.7
2022-08-25T12:10:27.095Z,37.9
2022-08-25T12:11:27.097Z,37.5
2022-08-25T12:12:27.107Z,37.3
2022-08-25T12:13:27.108Z,37.2
2022-08-25T12:14:28.221Z,37.4
2022-08-25T12:15:27.163Z,37.3
2022-08-25T12:16:27.210Z,37.6
2022-08-25T12:17:27.112Z,37.5
2022-08-25T12:18:27.129Z,37.4
2022-08-25T12:19:28.770Z,37.5
2022-08-25T12:20:27.104Z,37.6
2022-08-25T12:21:27.115Z,37.8
2022-08-25T12:22:27.155Z,38.1
2022-08-25T12:23:27.146Z,38.3
2022-08-25T12:24:27.120Z,38.8
2022-08-25T12:25:27.116Z,39.2
2022-08-25T12:26:27.114Z,39
2022-08-25T12:27:27.099Z,39.1
2022-08-25T12:28:27.112Z,39.4
2022-08-25T12:29:27.167Z,39.1
2022-08-25T12:30:27.630Z,39.3
2022-08-25T12:31:27.142Z,39.5
2022-08-25T12:32:27.402Z,39.8
2022-08-25T12:33:27.124Z,39.9
2022-08-25T12:34:27.174Z,40
2022-08-25T12:35:27.111Z,40.1
2022-08-25T12:36:27.159Z,40.3
2022-08-25T12:37:27.123Z,40.5
2022-08-25T12:38:27.144Z,40.5
2022-08-25T12:39:27.131Z,40.6
2022-08-25T12:40:27.205Z,40.7
2022-08-25T12:41:27.159Z,40.9
2022-08-25T12:42:27.123Z,40.6
2022-08-25T12:43:27.175Z,40.5
2022-08-25T12:44:27.127Z,40.2
2022-08-25T12:45:27.143Z,40.1
2022-08-25T12:46:27.191Z,39.9
2022-08-25T12:47:27.124Z,39.7
2022-08-25T12:48:27.120Z,40.2
2022-08-25T12:49:27.140Z,40.6
2022-08-25T12:50:29.667Z,40.5
2022-08-25T12:51:27.145Z,40.9
2022-08-25T12:52:28.047Z,41
2022-08-25T12:53:27.124Z,41.2
2022-08-25T12:54:27.133Z,40.5
2022-08-25T12:55:27.120Z,40.3
2022-08-25T12:56:27.123Z,40.4
2022-08-25T12:57:29.591Z,41.1
2022-08-25T12:58:38.629Z,41.6
2022-08-25T12:59:27.127Z,41.6
2022-08-25T13:01:35.298Z,41.7
2022-08-25T13:02:27.225Z,41.6
2022-08-25T13:03:27.354Z,42.2
2022-08-25T13:04:27.212Z,42.6
2022-08-25T13:05:27.130Z,42.3
2022-08-25T13:06:27.140Z,42.1
2022-08-25T13:07:27.137Z,42.1
2022-08-25T13:08:27.128Z,42.4
2022-08-25T13:09:27.214Z,42.6
2022-08-25T13:10:27.186Z,42.2
2022-08-25T13:11:27.173Z,42.6
2022-08-25T13:12:27.132Z,42.2
2022-08-25T13:13:27.156Z,41.8
2022-08-25T13:14:27.266Z,42.4
2022-08-25T13:15:27.131Z,42.5
2022-08-25T13:16:29.620Z,42.8
2022-08-25T13:17:27.191Z,42.3
2022-08-25T13:18:27.263Z,42.2
2022-08-25T13:19:27.364Z,42.5
2022-08-25T13:20:27.139Z,42.1
2022-08-25T13:21:27.293Z,42.3
2022-08-25T13:22:27.379Z,42.1
2022-08-25T13:23:27.433Z,42.1
2022-08-25T13:24:27.418Z,41.7
2022-08-25T13:25:32.616Z,42.2
2022-08-25T13:26:27.499Z,42.4